createdAt,value
2023-05-17T00:00:02.180Z,1001.23
2023-05-17T00:01:02.144Z,1001.17
2023-05-17T00:02:02.040Z,1001.16
2023-05-17T00:03:02.079Z,1001.18
2023-05-17T00:04:01.897Z,1001.21
2023-05-17T00:05:01.984Z,1001.20
2023-05-17T00:06:02.872Z,1001.17
2023-05-17T00:07:01.710Z,1001.20
2023-05-17T00:08:01.634Z,1001.25
2023-05-17T00:09:01.589Z,1001.16
2023-05-17T00:10:01.541Z,1001.19
2023-05-17T00:11:01.490Z,1001.20
2023-05-17T00:12:01.389Z,1001.22
2023-05-17T00:13:01.353Z,1001.20
2023-05-17T00:14:01.301Z,1001.24
2023-05-17T00:15:01.179Z,1001.21
2023-05-17T00:16:01.155Z,1001.24
2023-05-17T00:17:01.101Z,1001.24
2023-05-17T00:18:01.154Z,1001.30
2023-05-17T00:19:01.047Z,1001.30
2023-05-17T00:20:00.882Z,1001.24
2023-05-17T00:21:01.012Z,1001.25
2023-05-17T00:22:01.658Z,1001.26
2023-05-17T00:23:00.727Z,1001.26
2023-05-17T00:24:00.709Z,1001.25
2023-05-17T00:25:00.605Z,1001.23
2023-05-17T00:26:00.525Z,1001.24
2023-05-17T00:27:00.512Z,1001.24
2023-05-17T00:28:00.381Z,1001.23
2023-05-17T00:29:00.321Z,1001.21
2023-05-17T00:30:00.319Z,1001.24
2023-05-17T00:31:00.195Z,1001.23
2023-05-17T00:32:00.162Z,1001.23
2023-05-17T00:33:00.112Z,1001.25
2023-05-17T00:34:00.033Z,1001.28
2023-05-17T00:34:59.965Z,1001.25
2023-05-17T00:35:59.937Z,1001.28
2023-05-17T00:36:59.800Z,1001.25
2023-05-17T00:37:59.707Z,1001.22
2023-05-17T00:38:59.623Z,1001.25
2023-05-17T00:39:59.570Z,1001.23
2023-05-17T00:40:59.583Z,1001.22
2023-05-17T00:41:59.553Z,1001.22
2023-05-17T00:42:59.426Z,1001.27
2023-05-17T00:43:59.366Z,1001.24
2023-05-17T00:44:59.326Z,1001.26
2023-05-17T00:45:59.239Z,1001.25
2023-05-17T00:46:59.286Z,1001.28
2023-05-17T00:47:59.196Z,1001.32
2023-05-17T00:48:59.052Z,1001.30
2023-05-17T00:49:58.992Z,1001.29
2023-05-17T00:50:58.926Z,1001.29
2023-05-17T00:51:59.567Z,1001.28
2023-05-17T00:52:58.871Z,1001.28
2023-05-17T00:53:58.758Z,1001.28
2023-05-17T00:54:59.800Z,1001.29
2023-05-17T00:55:59.566Z,1001.28
2023-05-17T00:56:58.560Z,1001.26
2023-05-17T00:57:58.489Z,1001.25
2023-05-17T00:58:58.421Z,1001.25
2023-05-17T00:59:58.380Z,1001.27
2023-05-17T01:00:58.357Z,1001.27
2023-05-17T01:01:58.305Z,1001.26
2023-05-17T01:02:58.263Z,1001.26
2023-05-17T01:03:58.203Z,1001.29
2023-05-17T01:04:58.215Z,1001.33
2023-05-17T01:05:58.058Z,1001.32
2023-05-17T01:06:57.975Z,1001.32
2023-05-17T01:07:57.857Z,1001.28
2023-05-17T01:08:57.811Z,1001.27
2023-05-17T01:09:57.746Z,1001.25
2023-05-17T01:10:57.664Z,1001.30
2023-05-17T01:11:57.630Z,1001.27
2023-05-17T01:12:58.112Z,1001.27
2023-05-17T01:13:57.532Z,1001.30
2023-05-17T01:14:57.405Z,1001.32
2023-05-17T01:15:57.367Z,1001.30
2023-05-17T01:16:57.284Z,1001.34
2023-05-17T01:17:57.370Z,1001.33
2023-05-17T01:18:57.266Z,1001.34
2023-05-17T01:19:57.321Z,1001.36
2023-05-17T01:20:57.055Z,1001.41
2023-05-17T01:21:56.939Z,1001.41
2023-05-17T01:22:56.896Z,1001.39
2023-05-17T01:23:56.831Z,1001.43
2023-05-17T01:24:56.781Z,1001.45
2023-05-17T01:25:56.700Z,1001.39
2023-05-17T01:26:56.649Z,1001.41
2023-05-17T01:27:56.620Z,1001.41
2023-05-17T01:28:56.566Z,1001.39
2023-05-17T01:29:56.502Z,1001.37
2023-05-17T01:30:56.398Z,1001.37
2023-05-17T01:31:56.370Z,1001.39
2023-05-17T01:32:56.350Z,1001.43
2023-05-17T01:33:56.298Z,1001.40
2023-05-17T01:34:56.139Z,1001.44
2023-05-17T01:35:56.116Z,1001.44
2023-05-17T01:36:56.309Z,1001.48
2023-05-17T01:37:55.998Z,1001.50
2023-05-17T01:38:55.897Z,1001.50
2023-05-17T01:39:55.840Z,1001.52
2023-05-17T01:40:56.267Z,1001.54
2023-05-17T01:41:55.759Z,1001.56
2023-05-17T01:42:55.662Z,1001.56
2023-05-17T01:43:56.629Z,1001.58
2023-05-17T01:44:55.497Z,1001.59
2023-05-17T01:45:55.416Z,1001.61
2023-05-17T01:46:56.067Z,1001.59
2023-05-17T01:47:55.324Z,1001.60
2023-05-17T01:48:55.308Z,1001.63
2023-05-17T01:49:55.142Z,1001.62
2023-05-17T01:50:55.164Z,1001.64
2023-05-17T01:51:55.242Z,1001.67
2023-05-17T01:52:54.941Z,1001.63
2023-05-17T01:53:54.908Z,1001.71
2023-05-17T01:54:54.832Z,1001.61
2023-05-17T01:55:54.802Z,1001.68
2023-05-17T01:56:54.813Z,1001.68
2023-05-17T01:57:54.799Z,1001.66
2023-05-17T01:58:56.093Z,1001.65
2023-05-17T01:59:54.602Z,1001.62
2023-05-17T02:00:54.533Z,1001.66
2023-05-17T02:01:54.447Z,1001.63
2023-05-17T02:02:56.302Z,1001.61
2023-05-17T02:03:54.361Z,1001.66
2023-05-17T02:04:54.312Z,1001.71
2023-05-17T02:05:54.211Z,1001.64
2023-05-17T02:06:54.154Z,1001.69
2023-05-17T02:07:54.101Z,1001.64
2023-05-17T02:08:54.084Z,1001.68
2023-05-17T02:09:53.931Z,1001.72
2023-05-17T02:10:53.937Z,1001.67
2023-05-17T02:11:53.840Z,1001.73
2023-05-17T02:12:53.768Z,1001.71
2023-05-17T02:13:53.676Z,1001.68
2023-05-17T02:14:53.655Z,1001.66
2023-05-17T02:15:53.635Z,1001.66
2023-05-17T02:16:53.468Z,1001.65
2023-05-17T02:17:53.536Z,1001.65
2023-05-17T02:18:54.179Z,1001.67
2023-05-17T02:19:53.305Z,1001.62
2023-05-17T02:20:53.236Z,1001.62
2023-05-17T02:21:53.235Z,1001.62
2023-05-17T02:22:53.136Z,1001.65
2023-05-17T02:23:53.066Z,1001.68
2023-05-17T02:24:52.984Z,1001.68
2023-05-17T02:25:53.561Z,1001.65
2023-05-17T02:26:52.790Z,1001.63
2023-05-17T02:27:52.862Z,1001.68
2023-05-17T02:28:52.729Z,1001.69
2023-05-17T02:29:52.673Z,1001.68
2023-05-17T02:30:52.621Z,1001.71
2023-05-17T02:31:52.598Z,1001.72
2023-05-17T02:32:52.701Z,1001.72
2023-05-17T02:33:52.600Z,1001.72
2023-05-17T02:34:52.374Z,1001.68
2023-05-17T02:35:52.294Z,1001.72
2023-05-17T02:36:52.257Z,1001.71
2023-05-17T02:37:52.155Z,1001.66
2023-05-17T02:38:52.101Z,1001.67
2023-05-17T02:39:52.066Z,1001.62
2023-05-17T02:40:52.011Z,1001.60
2023-05-17T02:41:51.945Z,1001.61
2023-05-17T02:42:51.911Z,1001.59
2023-05-17T02:43:51.845Z,1001.64
2023-05-17T02:44:51.744Z,1001.63
2023-05-17T02:45:52.554Z,1001.61
2023-05-17T02:46:51.650Z,1001.65
2023-05-17T02:47:51.592Z,1001.70
2023-05-17T02:48:51.496Z,1001.68
2023-05-17T02:49:51.392Z,1001.65
2023-05-17T02:50:51.377Z,1001.68
2023-05-17T02:51:51.280Z,1001.67
2023-05-17T02:52:51.225Z,1001.68
2023-05-17T02:53:51.148Z,1001.71
2023-05-17T02:54:51.105Z,1001.69
2023-05-17T02:55:51.038Z,1001.68
2023-05-17T02:56:50.954Z,1001.68
2023-05-17T02:57:50.873Z,1001.68
2023-05-17T02:58:50.829Z,1001.69
2023-05-17T02:59:50.703Z,1001.63
2023-05-17T03:00:50.644Z,1001.61
2023-05-17T03:01:50.593Z,1001.62
2023-05-17T03:02:50.636Z,1001.66
2023-05-17T03:03:50.583Z,1001.66
2023-05-17T03:04:50.448Z,1001.65
2023-05-17T03:05:50.405Z,1001.67
2023-05-17T03:06:50.272Z,1001.67
2023-05-17T03:07:50.194Z,1001.68
2023-05-17T03:08:50.173Z,1001.67
2023-05-17T03:09:50.057Z,1001.62
2023-05-17T03:10:49.997Z,1001.62
2023-05-17T03:11:49.999Z,1001.59
2023-05-17T03:12:49.964Z,1001.58
2023-05-17T03:13:49.814Z,1001.60
2023-05-17T03:14:49.817Z,1001.60
2023-05-17T03:15:49.726Z,1001.68
2023-05-17T03:16:49.708Z,1001.70
2023-05-17T03:17:49.657Z,1001.72
2023-05-17T03:18:49.751Z,1001.73
2023-05-17T03:19:49.567Z,1001.63
2023-05-17T03:20:49.398Z,1001.72
2023-05-17T03:21:49.390Z,1001.72
2023-05-17T03:22:49.261Z,1001.74
2023-05-17T03:23:49.238Z,1001.72
2023-05-17T03:24:49.140Z,1001.74
2023-05-17T03:25:49.074Z,1001.75
2023-05-17T03:26:49.005Z,1001.80
2023-05-17T03:27:48.997Z,1001.78
2023-05-17T03:28:48.987Z,1001.79
2023-05-17T03:29:48.886Z,1001.78
2023-05-17T03:30:48.851Z,1001.78
2023-05-17T03:31:49.264Z,1001.82
2023-05-17T03:32:48.672Z,1001.82
2023-05-17T03:33:48.724Z,1001.80
2023-05-17T03:34:48.558Z,1001.87
2023-05-17T03:35:48.488Z,1001.89
2023-05-17T03:36:48.395Z,1001.87
2023-05-17T03:37:48.332Z,1001.90
2023-05-17T03:38:48.239Z,1001.91
2023-05-17T03:39:48.221Z,1001.92
2023-05-17T03:40:48.110Z,1001.89
2023-05-17T03:41:48.104Z,1001.91
2023-05-17T03:42:47.966Z,1001.92
2023-05-17T03:43:48.102Z,1001.91
2023-05-17T03:44:47.895Z,1001.99
2023-05-17T03:45:47.844Z,1001.95
2023-05-17T03:46:47.764Z,1001.95
2023-05-17T03:47:47.728Z,1001.93
2023-05-17T03:48:47.670Z,1002.05
2023-05-17T03:49:47.825Z,1002.03
2023-05-17T03:50:47.515Z,1002.01
2023-05-17T03:51:47.446Z,1002.02
2023-05-17T03:52:47.385Z,1002.07
2023-05-17T03:53:47.335Z,1002.09
2023-05-17T03:54:48.354Z,1002.06
2023-05-17T03:55:47.206Z,1002.06
2023-05-17T03:56:47.171Z,1002.12
2023-05-17T03:57:47.051Z,1002.07
2023-05-17T03:58:46.979Z,1002.14
2023-05-17T03:59:46.942Z,1002.10
2023-05-17T04:00:46.881Z,1002.13
2023-05-17T04:01:46.878Z,1002.12
2023-05-17T04:02:46.766Z,1002.14
2023-05-17T04:03:46.782Z,1002.12
2023-05-17T04:04:46.607Z,1002.13
2023-05-17T04:05:46.601Z,1002.13
2023-05-17T04:06:46.545Z,1002.12
2023-05-17T04:07:46.415Z,1002.17
2023-05-17T04:08:46.410Z,1002.18
2023-05-17T04:09:46.318Z,1002.17
2023-05-17T04:10:46.212Z,1002.16
2023-05-17T04:11:46.206Z,1002.20
2023-05-17T04:12:46.127Z,1002.24
2023-05-17T04:13:46.066Z,1002.22
2023-05-17T04:14:45.971Z,1002.17
2023-05-17T04:15:45.905Z,1002.23
2023-05-17T04:16:45.855Z,1002.25
2023-05-17T04:17:45.830Z,1002.29
2023-05-17T04:18:45.957Z,1002.24
2023-05-17T04:19:45.692Z,1002.24
2023-05-17T04:20:45.614Z,1002.24
2023-05-17T04:21:45.557Z,1002.30
2023-05-17T04:22:45.471Z,1002.28
2023-05-17T04:23:45.395Z,1002.28
2023-05-17T04:24:45.371Z,1002.31
2023-05-17T04:25:45.343Z,1002.32
2023-05-17T04:26:45.287Z,1002.37
2023-05-17T04:27:45.180Z,1002.31
2023-05-17T04:28:45.125Z,1002.36
2023-05-17T04:29:45.074Z,1002.41
2023-05-17T04:30:44.953Z,1002.41
2023-05-17T04:31:44.953Z,1002.41
2023-05-17T04:32:44.869Z,1002.41
2023-05-17T04:33:44.837Z,1002.48
2023-05-17T04:34:44.702Z,1002.46
2023-05-17T04:35:44.733Z,1002.44
2023-05-17T04:36:44.648Z,1002.43
2023-05-17T04:37:44.545Z,1002.45
2023-05-17T04:38:44.493Z,1002.47
2023-05-17T04:39:44.426Z,1002.45
2023-05-17T04:40:44.322Z,1002.49
2023-05-17T04:41:44.439Z,1002.45
2023-05-17T04:42:44.214Z,1002.51
2023-05-17T04:43:44.176Z,1002.52
2023-05-17T04:44:44.109Z,1002.53
2023-05-17T04:45:44.049Z,1002.50
2023-05-17T04:46:44.153Z,1002.53
2023-05-17T04:47:43.995Z,1002.54
2023-05-17T04:48:43.999Z,1002.53
2023-05-17T04:49:43.796Z,1002.55
2023-05-17T04:50:43.703Z,1002.57
2023-05-17T04:51:43.665Z,1002.61
2023-05-17T04:52:43.685Z,1002.61
2023-05-17T04:53:43.554Z,1002.66
2023-05-17T04:54:43.513Z,1002.60
2023-05-17T04:55:43.404Z,1002.69
2023-05-17T04:56:43.350Z,1002.68
2023-05-17T04:57:43.258Z,1002.70
2023-05-17T04:58:43.263Z,1002.66
2023-05-17T04:59:43.165Z,1002.70
2023-05-17T05:00:43.071Z,1002.71
2023-05-17T05:01:43.172Z,1002.75
2023-05-17T05:02:42.946Z,1002.74
2023-05-17T05:03:43.733Z,1002.74
2023-05-17T05:04:42.854Z,1002.77
2023-05-17T05:05:42.818Z,1002.75
2023-05-17T05:06:42.750Z,1002.78
2023-05-17T05:07:42.845Z,1002.77
2023-05-17T05:08:42.590Z,1002.76
2023-05-17T05:09:42.524Z,1002.82
2023-05-17T05:10:42.494Z,1002.83
2023-05-17T05:11:42.420Z,1002.81
2023-05-17T05:12:42.341Z,1002.81
2023-05-17T05:13:42.284Z,1002.85
2023-05-17T05:14:42.208Z,1002.86
2023-05-17T05:15:42.153Z,1002.87
2023-05-17T05:16:42.051Z,1002.86
2023-05-17T05:17:42.069Z,1002.90
2023-05-17T05:18:42.098Z,1002.87
2023-05-17T05:19:41.976Z,1002.89
2023-05-17T05:20:41.869Z,1002.84
2023-05-17T05:21:41.741Z,1002.86
2023-05-17T05:22:41.679Z,1002.86
2023-05-17T05:23:41.621Z,1002.88
2023-05-17T05:24:41.788Z,1002.88
2023-05-17T05:25:42.071Z,1002.91
2023-05-17T05:26:42.043Z,1002.92
2023-05-17T05:27:41.389Z,1002.91
2023-05-17T05:28:41.324Z,1002.91
2023-05-17T05:29:41.351Z,1002.90
2023-05-17T05:30:41.206Z,1002.86
2023-05-17T05:31:41.853Z,1002.88
2023-05-17T05:32:41.097Z,1002.89
2023-05-17T05:33:41.117Z,1002.92
2023-05-17T05:34:40.927Z,1002.94
2023-05-17T05:35:40.884Z,1002.95
2023-05-17T05:36:40.789Z,1002.96
2023-05-17T05:37:40.759Z,1002.98
2023-05-17T05:38:40.677Z,1002.96
2023-05-17T05:39:40.646Z,1002.95
2023-05-17T05:40:40.616Z,1003.00
2023-05-17T05:41:40.617Z,1003.02
2023-05-17T05:42:40.432Z,1003.00
2023-05-17T05:43:40.353Z,1003.05
2023-05-17T05:44:40.291Z,1003.07
2023-05-17T05:45:40.261Z,1003.04
2023-05-17T05:46:40.257Z,1003.06
2023-05-17T05:47:40.153Z,1003.04
2023-05-17T05:48:40.180Z,1003.03
2023-05-17T05:49:41.705Z,1003.03
2023-05-17T05:50:39.939Z,1003.03
2023-05-17T05:51:39.889Z,1003.00
2023-05-17T05:52:39.799Z,1003.03
2023-05-17T05:53:39.722Z,1003.11
2023-05-17T05:54:39.698Z,1003.05
2023-05-17T05:55:39.761Z,1003.06
2023-05-17T05:56:39.768Z,1003.08
2023-05-17T05:57:39.504Z,1003.12
2023-05-17T05:58:39.420Z,1003.10
2023-05-17T05:59:39.375Z,1003.13
2023-05-17T06:00:39.354Z,1003.15
2023-05-17T06:01:39.288Z,1003.13
2023-05-17T06:02:39.210Z,1003.09
2023-05-17T06:03:39.136Z,1003.09
2023-05-17T06:04:45.251Z,1003.18
2023-05-17T06:05:39.170Z,1003.19
2023-05-17T06:06:39.057Z,1003.20
2023-05-17T06:07:38.831Z,1003.21
2023-05-17T06:08:38.852Z,1003.15
2023-05-17T06:09:38.757Z,1003.22
2023-05-17T06:10:38.708Z,1003.24
2023-05-17T06:11:39.235Z,1003.26
2023-05-17T06:12:38.542Z,1003.28
2023-05-17T06:13:38.495Z,1003.32
2023-05-17T06:14:38.415Z,1003.24
2023-05-17T06:15:38.357Z,1003.27
2023-05-17T06:16:38.341Z,1003.28
2023-05-17T06:17:38.364Z,1003.29
2023-05-17T06:18:38.374Z,1003.34
2023-05-17T06:19:38.212Z,1003.32
2023-05-17T06:20:38.180Z,1003.29
2023-05-17T06:21:37.995Z,1003.30
2023-05-17T06:22:37.938Z,1003.35
2023-05-17T06:23:37.823Z,1003.34
2023-05-17T06:24:37.854Z,1003.38
2023-05-17T06:25:38.763Z,1003.32
2023-05-17T06:26:37.686Z,1003.28
2023-05-17T06:27:37.742Z,1003.34
2023-05-17T06:28:37.527Z,1003.30
2023-05-17T06:29:37.731Z,1003.34
2023-05-17T06:30:37.445Z,1003.35
2023-05-17T06:31:37.391Z,1003.36
2023-05-17T06:32:37.351Z,1003.34
2023-05-17T06:33:37.276Z,1003.39
2023-05-17T06:34:37.179Z,1003.33
2023-05-17T06:35:51.631Z,1003.36
2023-05-17T06:36:38.571Z,1003.37
2023-05-17T06:37:37.050Z,1003.42
2023-05-17T06:38:37.096Z,1003.40
2023-05-17T06:39:36.974Z,1003.40
2023-05-17T06:40:37.277Z,1003.38
2023-05-17T06:41:36.753Z,1003.43
2023-05-17T06:42:37.225Z,1003.47
2023-05-17T06:43:37.695Z,1003.50
2023-05-17T06:44:36.551Z,1003.52
2023-05-17T06:45:36.519Z,1003.52
2023-05-17T06:46:36.475Z,1003.55
2023-05-17T06:47:36.489Z,1003.50
2023-05-17T06:48:36.399Z,1003.57
2023-05-17T06:49:36.279Z,1003.55
2023-05-17T06:50:36.255Z,1003.58
2023-05-17T06:51:36.124Z,1003.59
2023-05-17T06:52:36.016Z,1003.56
2023-05-17T06:53:35.998Z,1003.59
2023-05-17T06:54:35.924Z,1003.52
2023-05-17T06:55:35.899Z,1003.55
2023-05-17T06:56:35.942Z,1003.57
2023-05-17T06:57:35.782Z,1003.57
2023-05-17T06:58:35.754Z,1003.53
2023-05-17T06:59:35.615Z,1003.59
2023-05-17T07:00:35.793Z,1003.55
2023-05-17T07:01:35.500Z,1003.60
2023-05-17T07:02:35.677Z,1003.60
2023-05-17T07:03:35.488Z,1003.59
2023-05-17T07:04:35.334Z,1003.65
2023-05-17T07:05:35.402Z,1003.70
2023-05-17T07:06:35.205Z,1003.64
2023-05-17T07:07:36.342Z,1003.67
2023-05-17T07:08:35.101Z,1003.65
2023-05-17T07:09:35.035Z,1003.62
2023-05-17T07:10:34.960Z,1003.57
2023-05-17T07:11:35.645Z,1003.64
2023-05-17T07:12:34.848Z,1003.64
2023-05-17T07:13:34.816Z,1003.66
2023-05-17T07:14:34.697Z,1003.64
2023-05-17T07:15:34.629Z,1003.67
2023-05-17T07:16:34.624Z,1003.62
2023-05-17T07:17:35.262Z,1003.64
2023-05-17T07:18:34.636Z,1003.65
2023-05-17T07:19:34.736Z,1003.71
2023-05-17T07:20:34.388Z,1003.66
2023-05-17T07:21:34.294Z,1003.71
2023-05-17T07:22:34.244Z,1003.68
2023-05-17T07:23:34.136Z,1003.74
2023-05-17T07:24:34.120Z,1003.77
2023-05-17T07:25:34.078Z,1003.79
2023-05-17T07:26:33.998Z,1003.85
2023-05-17T07:27:34.277Z,1003.85
2023-05-17T07:28:35.198Z,1003.91
2023-05-17T07:29:33.797Z,1003.86
2023-05-17T07:30:33.794Z,1003.92
2023-05-17T07:31:33.654Z,1003.91
2023-05-17T07:32:33.644Z,1003.86
2023-05-17T07:33:33.493Z,1003.89
2023-05-17T07:34:33.637Z,1003.86
2023-05-17T07:35:33.397Z,1003.86
2023-05-17T07:36:33.377Z,1003.84
2023-05-17T07:37:33.299Z,1003.77
2023-05-17T07:38:33.529Z,1003.82
2023-05-17T07:39:33.226Z,1003.73
2023-05-17T07:40:33.102Z,1003.70
2023-05-17T07:41:33.105Z,1003.70
2023-05-17T07:42:32.957Z,1003.79
2023-05-17T07:43:32.911Z,1003.86
2023-05-17T07:44:32.895Z,1003.83
2023-05-17T07:45:32.861Z,1003.82
2023-05-17T07:46:32.754Z,1003.82
2023-05-17T07:47:33.345Z,1003.82
2023-05-17T07:48:32.765Z,1003.84
2023-05-17T07:49:32.570Z,1003.84
2023-05-17T07:50:32.812Z,1003.88
2023-05-17T07:51:34.098Z,1003.86
2023-05-17T07:52:32.594Z,1003.94
2023-05-17T07:53:34.250Z,1003.95
2023-05-17T07:54:32.262Z,1003.89
2023-05-17T07:55:35.601Z,1003.96
2023-05-17T07:56:32.149Z,1003.96
2023-05-17T07:57:33.516Z,1003.96
2023-05-17T07:58:33.868Z,1003.95
2023-05-17T07:59:31.967Z,1003.93
2023-05-17T08:00:31.916Z,1004.02
2023-05-17T08:01:31.850Z,1004.00
2023-05-17T08:02:31.809Z,1003.99
2023-05-17T08:03:31.701Z,1004.03
2023-05-17T08:04:31.673Z,1004.03
2023-05-17T08:05:35.779Z,1004.09
2023-05-17T08:06:31.542Z,1004.07
2023-05-17T08:07:31.677Z,1004.02
2023-05-17T08:08:31.449Z,1003.93
2023-05-17T08:09:32.425Z,1003.99
2023-05-17T08:10:32.669Z,1003.96
2023-05-17T08:11:36.220Z,1003.96
2023-05-17T08:12:48.502Z,1003.96
2023-05-17T08:13:31.942Z,1003.99
2023-05-17T08:14:31.707Z,1004.03
2023-05-17T08:15:31.474Z,1004.00
2023-05-17T08:16:30.883Z,1004.01
2023-05-17T08:17:30.830Z,1003.98
2023-05-17T08:18:30.976Z,1004.00
2023-05-17T08:19:30.865Z,1004.10
2023-05-17T08:20:30.651Z,1004.08
2023-05-17T08:21:30.587Z,1004.09
2023-05-17T08:22:30.523Z,1004.14
2023-05-17T08:23:30.450Z,1004.14
2023-05-17T08:24:30.447Z,1004.16
2023-05-17T08:25:31.343Z,1004.18
2023-05-17T08:26:30.269Z,1004.13
2023-05-17T08:27:30.220Z,1004.14
2023-05-17T08:28:30.143Z,1004.13
2023-05-17T08:29:30.120Z,1004.13
2023-05-17T08:30:30.008Z,1004.12
2023-05-17T08:31:29.916Z,1004.17
2023-05-17T08:32:31.260Z,1004.18
2023-05-17T08:33:29.891Z,1004.16
2023-05-17T08:34:29.763Z,1004.19
2023-05-17T08:35:29.686Z,1004.08
2023-05-17T08:36:29.645Z,1004.13
2023-05-17T08:37:30.722Z,1004.13
2023-05-17T08:38:29.483Z,1004.16
2023-05-17T08:39:30.248Z,1004.17
2023-05-17T08:40:29.669Z,1004.12
2023-05-17T08:41:29.527Z,1004.15
2023-05-17T08:42:30.252Z,1004.19
2023-05-17T08:43:29.255Z,1004.14
2023-05-17T08:44:29.188Z,1004.24
2023-05-17T08:45:29.418Z,1004.24
2023-05-17T08:46:29.065Z,1004.19
2023-05-17T08:47:29.117Z,1004.21
2023-05-17T08:48:28.937Z,1004.18
2023-05-17T08:49:28.895Z,1004.20
2023-05-17T08:50:29.115Z,1004.12
2023-05-17T08:51:28.671Z,1004.19
2023-05-17T08:52:28.787Z,1004.14
2023-05-17T08:53:28.625Z,1004.16
2023-05-17T08:54:28.611Z,1004.12
2023-05-17T08:55:29.080Z,1004.11
2023-05-17T08:56:28.431Z,1004.09
2023-05-17T08:57:28.354Z,1004.01
2023-05-17T08:58:28.294Z,1004.06
2023-05-17T08:59:28.221Z,1004.05
2023-05-17T09:00:28.451Z,1004.11
2023-05-17T09:01:29.867Z,1004.06
2023-05-17T09:02:28.086Z,1004.07
2023-05-17T09:03:28.681Z,1004.13
2023-05-17T09:04:27.915Z,1004.16
2023-05-17T09:05:28.126Z,1004.15
2023-05-17T09:06:27.820Z,1004.11
2023-05-17T09:07:27.765Z,1004.16
2023-05-17T09:08:27.639Z,1004.20
2023-05-17T09:09:27.582Z,1004.17
2023-05-17T09:10:27.680Z,1004.16
2023-05-17T09:11:27.513Z,1004.16
2023-05-17T09:12:27.393Z,1004.19
2023-05-17T09:13:27.366Z,1004.17
2023-05-17T09:14:28.219Z,1004.22
2023-05-17T09:15:27.204Z,1004.18
2023-05-17T09:16:27.216Z,1004.14
2023-05-17T09:17:30.870Z,1004.16
2023-05-17T09:18:27.242Z,1004.16
2023-05-17T09:19:27.057Z,1004.08
2023-05-17T09:20:27.903Z,1004.10
2023-05-17T09:21:27.991Z,1004.11
2023-05-17T09:22:26.825Z,1004.04
2023-05-17T09:23:26.909Z,1004.09
2023-05-17T09:24:26.687Z,1004.11
2023-05-17T09:25:26.798Z,1004.12
2023-05-17T09:26:26.520Z,1004.13
2023-05-17T09:27:26.478Z,1004.15
2023-05-17T09:28:26.398Z,1004.29
2023-05-17T09:29:26.361Z,1004.12
2023-05-17T09:30:26.423Z,1004.11
2023-05-17T09:31:27.468Z,1004.16
2023-05-17T09:32:28.715Z,1004.16
2023-05-17T09:33:26.136Z,1004.17
2023-05-17T09:34:26.744Z,1004.13
2023-05-17T09:35:26.349Z,1004.11
2023-05-17T09:36:25.961Z,1004.20
2023-05-17T09:37:25.841Z,1004.21
2023-05-17T09:38:25.804Z,1004.21
2023-05-17T09:39:25.690Z,1004.20
2023-05-17T09:40:25.658Z,1004.16
2023-05-17T09:41:25.738Z,1004.23
2023-05-17T09:42:25.561Z,1004.22
2023-05-17T09:43:25.514Z,1004.12
2023-05-17T09:44:25.509Z,1004.15
2023-05-17T09:45:25.359Z,1004.18
2023-05-17T09:46:25.298Z,1004.17
2023-05-17T09:47:25.314Z,1004.12
2023-05-17T09:48:25.412Z,1004.17
2023-05-17T09:49:25.106Z,1004.17
2023-05-17T09:50:26.227Z,1004.15
2023-05-17T09:51:25.064Z,1004.14
2023-05-17T09:52:24.937Z,1004.06
2023-05-17T09:53:24.868Z,1004.10
2023-05-17T09:54:24.831Z,1004.16
2023-05-17T09:55:25.227Z,1004.15
2023-05-17T09:56:24.710Z,1004.06
2023-05-17T09:57:24.625Z,1004.10
2023-05-17T09:58:24.520Z,1004.06
2023-05-17T09:59:24.463Z,1004.06
2023-05-17T10:00:24.487Z,1004.14
2023-05-17T10:01:24.331Z,1004.16
2023-05-17T10:02:24.296Z,1004.19
2023-05-17T10:03:24.472Z,1004.21
2023-05-17T10:04:24.231Z,1004.20
2023-05-17T10:05:24.546Z,1004.22
2023-05-17T10:06:43.674Z,1004.19
2023-05-17T10:07:24.025Z,1004.21
2023-05-17T10:08:23.964Z,1004.12
2023-05-17T10:09:23.910Z,1004.16
2023-05-17T10:10:23.804Z,1004.16
2023-05-17T10:11:23.735Z,1004.17
2023-05-17T10:12:24.354Z,1004.21
2023-05-17T10:13:23.618Z,1004.14
2023-05-17T10:14:24.335Z,1004.14
2023-05-17T10:15:23.608Z,1004.09
2023-05-17T10:16:24.275Z,1004.03
2023-05-17T10:17:23.374Z,1004.10
2023-05-17T10:18:23.377Z,1004.16
2023-05-17T10:19:23.294Z,1004.08
2023-05-17T10:20:24.829Z,1004.06
2023-05-17T10:21:23.102Z,1004.13
2023-05-17T10:22:24.053Z,1004.16
2023-05-17T10:23:23.005Z,1004.17
2023-05-17T10:24:22.962Z,1004.17
2023-05-17T10:25:24.256Z,1004.15
2023-05-17T10:26:22.850Z,1004.13
2023-05-17T10:27:22.815Z,1004.08
2023-05-17T10:28:22.800Z,1004.16
2023-05-17T10:29:22.661Z,1004.13
2023-05-17T10:30:23.239Z,1004.11
2023-05-17T10:31:22.518Z,1004.08
2023-05-17T10:32:22.529Z,1004.12
2023-05-17T10:33:22.497Z,1004.11
2023-05-17T10:34:22.474Z,1004.14
2023-05-17T10:35:22.287Z,1004.14
2023-05-17T10:36:22.213Z,1004.11
2023-05-17T10:37:22.175Z,1004.06
2023-05-17T10:38:26.289Z,1004.17
2023-05-17T10:39:22.004Z,1004.07
2023-05-17T10:40:21.992Z,1004.10
2023-05-17T10:41:21.919Z,1004.09
2023-05-17T10:42:21.838Z,1004.12
2023-05-17T10:43:21.897Z,1004.07
2023-05-17T10:44:21.730Z,1004.14
2023-05-17T10:45:21.688Z,1004.12
2023-05-17T10:46:21.595Z,1004.08
2023-05-17T10:47:21.530Z,1003.96
2023-05-17T10:48:21.525Z,1004.04
2023-05-17T10:49:24.586Z,1004.08
2023-05-17T10:50:21.379Z,1004.09
2023-05-17T10:51:21.283Z,1004.07
2023-05-17T10:52:21.202Z,1004.04
2023-05-17T10:53:21.201Z,1004.07
2023-05-17T10:54:21.070Z,1004.06
2023-05-17T10:55:21.033Z,1004.12
2023-05-17T10:56:21.002Z,1004.13
2023-05-17T10:57:20.989Z,1004.13
2023-05-17T10:58:21.537Z,1004.13
2023-05-17T10:59:20.825Z,1004.15
2023-05-17T11:00:21.217Z,1004.19
2023-05-17T11:01:21.139Z,1004.18
2023-05-17T11:02:20.628Z,1004.20
2023-05-17T11:03:20.601Z,1004.34
2023-05-17T11:04:20.483Z,1004.19
2023-05-17T11:05:20.502Z,1004.15
2023-05-17T11:06:24.507Z,1004.14
2023-05-17T11:07:20.593Z,1004.14
2023-05-17T11:08:21.341Z,1004.05
2023-05-17T11:09:20.473Z,1004.13
2023-05-17T11:10:21.557Z,1004.12
2023-05-17T11:11:20.047Z,1004.16
2023-05-17T11:12:20.016Z,1004.08
2023-05-17T11:13:19.967Z,1004.09
2023-05-17T11:14:19.881Z,1004.05
2023-05-17T11:15:19.837Z,1004.02
2023-05-17T11:16:19.729Z,1004.06
2023-05-17T11:17:19.714Z,1004.03
2023-05-17T11:18:30.432Z,1003.97
2023-05-17T11:19:19.589Z,1003.98
2023-05-17T11:20:19.699Z,1004.02
2023-05-17T11:21:19.434Z,1004.09
2023-05-17T11:22:19.380Z,1004.08
2023-05-17T11:23:19.283Z,1004.03
2023-05-17T11:24:20.882Z,1004.07
2023-05-17T11:25:19.245Z,1004.14
2023-05-17T11:26:19.125Z,1004.14
2023-05-17T11:27:19.095Z,1004.14
2023-05-17T11:28:19.053Z,1004.18
2023-05-17T11:29:18.970Z,1004.17
2023-05-17T11:30:18.926Z,1004.20
2023-05-17T11:31:18.853Z,1004.28
2023-05-17T11:32:18.804Z,1004.26
2023-05-17T11:33:29.857Z,1004.22
2023-05-17T11:34:18.736Z,1004.22
2023-05-17T11:35:18.594Z,1004.18
2023-05-17T11:36:18.538Z,1004.08
2023-05-17T11:37:18.476Z,1004.22
2023-05-17T11:38:18.412Z,1004.18
2023-05-17T11:39:18.325Z,1004.19
2023-05-17T11:40:18.255Z,1004.16
2023-05-17T11:41:26.526Z,1004.24
2023-05-17T11:42:18.177Z,1004.22
2023-05-17T11:43:19.027Z,1004.21
2023-05-17T11:44:18.050Z,1004.18
2023-05-17T11:45:17.984Z,1004.18
2023-05-17T11:46:17.922Z,1004.15
2023-05-17T11:47:17.919Z,1004.18
2023-05-17T11:48:17.914Z,1004.18
2023-05-17T11:49:33.887Z,1004.18
2023-05-17T11:50:17.663Z,1004.15
2023-05-17T11:51:18.856Z,1004.22
2023-05-17T11:52:18.220Z,1004.14
2023-05-17T11:53:17.463Z,1004.20
2023-05-17T11:54:17.499Z,1004.11
2023-05-17T11:55:17.365Z,1004.13
2023-05-17T11:56:17.276Z,1004.11
2023-05-17T11:57:17.209Z,1004.15
2023-05-17T11:58:17.189Z,1004.25
2023-05-17T11:59:17.079Z,1004.23
2023-05-17T12:00:17.141Z,1004.27
2023-05-17T12:01:16.985Z,1004.36
2023-05-17T12:02:16.925Z,1004.29
2023-05-17T12:03:17.738Z,1004.33
2023-05-17T12:04:16.900Z,1004.31